Погода Умм-Аль-Кувейнна неделю

Умм-Аль-Кувейн, ОАЭ

23 - 29 июля
  • 23июля
    Сегодня
    +32°
    +40°
    Ясно и безоблачно
    ВремяПогодаТемператураВлажностьДавлениеВетер, м/сВероятность осадков
    01:00Облачно с прояснениями+35°C78 %746 мм2.8 м/с0 %
    04:00Облачно с прояснениями+34°C82 %746 мм1.5 м/с0 %
    07:00Ясно и безоблачно+34°C87 %747 мм2.6 м/с0 %
    10:00Ясно и безоблачно+39°C68 %747 мм4.0 м/с0 %
    13:00Ясно и безоблачно+40°C68 %746 мм4.6 м/с0 %
    16:00Ясно и безоблачно+39°C69 %745 мм3.8 м/с0 %
    19:00Ясно и безоблачно+37°C74 %745 мм5.0 м/с0 %
    22:00Небольшая облачность+36°C81 %746 мм3.0 м/с0 %
  • 24июля
    Среда
    +31°
    +41°
    Ясно и безоблачно
    ВремяПогодаТемператураВлажностьДавлениеВетер, м/сВероятность осадков
    01:00Ясно и безоблачно+35°C81 %745 мм3.2 м/с0 %
    04:00Ясно и безоблачно+33°C83 %744 мм4.4 м/с0 %
    07:00Ясно и безоблачно+33°C77 %745 мм4.7 м/с0 %
    10:00Ясно и безоблачно+39°C60 %745 мм5.6 м/с0 %
    13:00Ясно и безоблачно+40°C52 %744 мм7.2 м/с0 %
    16:00Ясно и безоблачно+40°C55 %743 мм7.3 м/с0 %
    19:00Ясно и безоблачно+37°C57 %743 мм5.3 м/с0 %
    22:00Небольшая облачность+36°C68 %744 мм3.6 м/с0 %
  • 25июля
    Четверг
    +31°
    +41°
    Практически безоблачно
    ВремяПогодаТемператураВлажностьДавлениеВетер, м/сВероятность осадков
    01:00Небольшая облачность+34°C71 %743 мм3.8 м/с0 %
    04:00Ясно и безоблачно+32°C67 %742 мм3.6 м/с0 %
    07:00Небольшая облачность+33°C60 %743 мм3.6 м/с0 %
    10:00Ясно и безоблачно+38°C62 %744 мм4.6 м/с0 %
    13:00Практически безоблачно+40°C55 %743 мм5.6 м/с0 %
    16:00Практически безоблачно+40°C58 %742 мм5.9 м/с0 %
    19:00Практически безоблачно+38°C62 %743 мм5.0 м/с0 %
    22:00Ясно и безоблачно+35°C71 %744 мм3.1 м/с0 %
  • 26июля
    Пятница
    +31°
    +41°
    Ясно и безоблачно
    ВремяПогодаТемператураВлажностьДавлениеВетер, м/сВероятность осадков
    01:00Облачно с прояснениями+34°C77 %743 мм4.1 м/с0 %
    04:00Ясно и безоблачно+33°C82 %743 мм2.9 м/с0 %
    07:00Практически безоблачно+33°C81 %744 мм3.5 м/с0 %
    10:00Практически безоблачно+39°C69 %745 мм5.3 м/с0 %
    13:00Ясно и безоблачно+40°C60 %744 мм6.2 м/с0 %
    16:00Ясно и безоблачно+39°C65 %743 мм6.9 м/с0 %
    19:00Ясно и безоблачно+38°C64 %744 мм5.0 м/с0 %
    22:00Ясно и безоблачно+36°C68 %745 мм4.4 м/с0 %
  • 27июля
    Суббота
    +32°
    +41°
    Ясно и безоблачно
    ВремяПогодаТемператураВлажностьДавлениеВетер, м/сВероятность осадков
    01:00Ясно и безоблачно+34°C64 %745 мм4.1 м/с0 %
    04:00Ясно и безоблачно+32°C63 %745 мм3.8 м/с0 %
    07:00Ясно и безоблачно+33°C56 %746 мм4.1 м/с0 %
    10:00Ясно и безоблачно+39°C61 %746 мм5.5 м/с0 %
    13:00Ясно и безоблачно+40°C59 %745 мм7.1 м/с0 %
    16:00Ясно и безоблачно+40°C63 %744 мм6.0 м/с0 %
    19:00Ясно и безоблачно+37°C73 %745 мм5.0 м/с0 %
    22:00Ясно и безоблачно+36°C76 %746 мм5.4 м/с0 %
Мы используем cookies
Соглашаюсь